Date,TemperatureHighF,TemperatureAvgF,TemperatureLowF,DewpointHighF,DewpointAvgF,DewpointLowF,HumidityHigh,HumidityAvg,HumidityLow,PressureMaxIn,PressureMinIn,WindSpeedMaxMPH,WindSpeedAvgMPH,GustSpeedMaxMPH,PrecipitationSumIn
2013-1-1,36.1,29.6,15.7,27.0,17.9,6.0,82,63,47,29.89,29.67,0,0,0,0.03
2013-1-2,28.3,17.4,7.5,19.0,8.5,0.0,85,69,57,30.08,29.86,0,0,0,0.00
2013-1-3,24.3,11.0,-1.8,9.0,0.4,-6.0,86,65,31,30.11,29.96,0,0,0,0.00
2013-1-4,37.6,24.8,10.5,25.0,19.2,8.0,94,80,58,29.94,29.77,0,0,0,0.01
2013-1-5,41.1,30.7,17.7,26.0,20.9,15.0,91,69,41,30.23,29.81,0,0,0,0.04
2013-1-6,41.3,29.3,18.7,29.0,24.8,16.0,94,84,60,30.20,29.91,0,0,0,0.04
2013-1-7,36.7,26.3,17.3,30.0,20.6,15.0,96,81,50,30.37,29.93,0,0,0,0.01
2013-1-8,44.3,28.7,16.1,29.0,23.4,14.0,96,83,52,30.33,30.23,0,0,0,0.01
2013-1-9,43.6,32.4,18.1,35.0,27.2,17.0,96,82,55,30.36,29.96,0,0,0,0.01
2013-1-10,45.6,39.8,27.7,30.0,25.5,24.0,86,58,44,30.50,29.99,0,0,0,0.00
2013-1-11,38.2,30.9,22.0,34.0,27.3,21.0,96,87,69,30.49,30.19,0,0,0,0.09
2013-1-12,40.5,36.7,34.4,40.0,36.0,34.0,98,97,96,30.18,30.09,0,0,0,0.01
2013-1-13,48.2,40.7,35.4,48.0,38.3,-99.9,99,96,98,30.11,29.95,0,-21,0,0.01
2013-1-14,59.3,48.4,37.7,53.0,42.7,28.0,99,82,48,30.21,29.82,0,0,0,0.00
2013-1-15,40.6,35.2,28.9,29.0,26.9,25.0,91,73,56,30.28,30.18,0,0,0,0.00
2013-1-16,33.0,31.3,29.0,32.0,30.0,27.0,97,94,88,30.21,29.78,0,0,0,0.06
2013-1-17,40.6,31.6,23.4,35.0,26.1,14.0,97,81,56,30.06,29.79,0,0,0,0.01
2013-1-18,28.3,19.9,13.5,13.0,3.6,-4.0,79,51,33,30.41,30.03,0,0,0,0.01
2013-1-19,46.7,32.4,20.3,33.0,20.5,9.0,84,62,45,30.33,29.84,0,0,0,0.06
2013-1-20,51.3,39.6,27.6,33.0,26.2,12.0,79,60,38,29.88,29.49,0,0,0,0.00
2013-1-21,27.3,23.8,18.0,21.0,11.9,4.0,92,63,45,30.05,29.76,0,0,0,0.00
2013-1-22,23.6,18.4,11.2,20.0,9.0,0.0,93,69,42,30.04,29.72,0,0,0,0.00
2013-1-23,15.1,10.1,4.7,0.0,-6.3,-11.0,68,49,32,30.11,30.02,0,0,0,0.00
2013-1-24,18.7,9.9,-0.9,-4.0,-7.7,-11.0,75,47,30,30.20,30.03,0,0,0,0.00
2013-1-25,23.1,15.2,5.1,8.0,-4.4,-9.0,65,43,28,30.27,30.03,0,0,0,0.00
2013-1-26,23.4,16.3,8.3,11.0,2.8,-5.0,90,59,33,30.20,29.97,0,0,0,0.00
2013-1-27,29.4,19.3,11.7,8.0,2.6,-3.0,72,51,30,30.43,30.20,0,0,0,0.00
2013-1-28,29.4,23.2,14.5,25.0,15.3,7.0,100,74,39,30.42,29.99,0,0,0,0.00
2013-1-29,33.2,29.1,24.2,32.0,27.5,23.0,97,93,88,30.16,30.00,0,0,0,0.03
2013-1-30,58.4,44.8,32.3,57.0,44.2,32.0,99,98,93,30.12,29.41,0,0,0,0.04
2013-1-31,60.0,46.6,29.0,59.0,37.0,-99.9,98,74,42,29.54,28.91,0,-11,0,0.49
2013-2-1,32.1,27.6,21.5,19.0,10.0,5.0,67,48,36,30.04,29.54,0,0,0,0.00
2013-2-2,29.3,23.5,15.5,13.0,8.1,4.0,74,53,41,30.21,30.01,0,0,0,0.00
2013-2-3,26.2,23.8,17.7,23.0,20.1,13.0,94,86,60,30.02,29.69,0,0,0,0.00
2013-2-4,29.1,22.8,16.6,21.0,11.8,6.0,94,65,42,29.90,29.68,0,0,0,0.00
2013-2-5,29.1,24.0,18.9,22.0,14.0,8.0,88,67,51,29.99,29.90,0,0,0,0.00
2013-2-6,37.3,28.8,20.8,26.0,18.7,6.0,94,69,41,30.25,29.89,0,0,0,0.02
2013-2-7,28.3,21.9,12.1,9.0,2.6,-99.9,83,48,33,30.49,30.26,0,-22,0,0.00
2013-2-8,26.0,22.2,17.6,23.0,18.6,7.0,94,86,47,30.45,29.62,0,0,0,0.00
2013-2-9,21.3,18.2,13.8,20.0,16.7,12.0,95,94,92,30.17,29.58,0,0,0,0.00
2013-2-10,32.0,16.6,-4.3,32.0,15.1,-7.0,98,93,87,30.36,30.17,0,0,0,0.04
2013-2-11,32.3,24.9,7.6,32.0,24.0,6.0,99,96,91,30.32,29.58,0,0,0,0.09
2013-2-12,44.0,36.2,29.5,40.0,31.3,26.0,99,84,58,29.83,29.57,0,0,0,0.03
2013-2-13,41.9,31.4,20.7,27.0,24.8,19.0,95,78,53,29.82,29.68,0,0,0,0.00
2013-2-14,43.1,32.6,23.4,27.0,23.7,21.0,92,72,43,29.95,29.68,0,0,0,0.00
2013-2-15,50.5,34.4,21.3,34.0,28.5,20.0,96,82,53,29.95,29.85,0,0,0,0.00
2013-2-16,37.6,33.3,26.3,32.0,27.1,18.0,97,79,58,29.91,29.70,0,0,0,0.02
2013-2-17,28.7,21.5,16.9,20.0,10.5,2.0,89,64,46,29.69,29.36,0,0,0,0.00
2013-2-18,30.6,21.6,13.9,8.0,2.0,-2.0,66,44,25,30.12,29.65,0,0,0,0.00
2013-2-19,46.0,33.3,18.6,40.0,23.3,5.0,98,69,48,30.14,29.54,0,0,0,0.17
2013-2-20,35.9,31.3,25.8,35.0,20.9,12.0,98,67,46,29.74,29.50,0,0,0,0.17
2013-2-21,31.9,26.7,23.2,17.0,14.1,11.0,73,60,47,30.15,29.73,0,0,0,0.00
2013-2-22,38.8,30.2,18.4,28.0,21.2,16.0,92,71,45,30.36,30.17,0,0,0,0.00
2013-2-23,38.1,32.8,25.9,32.0,29.1,24.0,97,86,73,30.30,29.89,0,0,0,0.00
2013-2-24,34.3,32.9,30.8,34.0,32.2,30.0,98,97,95,29.89,29.67,0,0,0,0.38
2013-2-25,37.8,32.6,28.2,35.0,31.2,27.0,98,94,82,30.20,29.86,0,0,0,0.34
2013-2-26,42.1,33.3,25.5,36.0,29.1,25.0,98,86,61,30.30,30.13,0,0,0,0.09
2013-2-27,40.8,37.6,34.6,40.0,36.2,30.0,97,94,83,30.13,29.53,0,0,0,1.19
2013-2-28,43.8,36.3,31.3,37.0,34.2,30.0,98,92,77,29.60,29.50,0,0,0,0.10
2013-3-1,39.9,35.9,28.9,35.0,30.4,28.0,98,81,67,29.64,29.49,0,0,0,0.00
2013-3-2,40.2,36.3,29.6,31.0,28.2,26.0,87,73,66,29.64,29.58,0,0,0,0.00
2013-3-3,38.6,34.4,31.2,33.0,29.0,26.0,91,81,75,29.61,29.52,0,0,0,0.00
2013-3-4,38.6,33.7,29.3,28.0,25.1,22.0,83,71,57,29.71,29.55,0,0,0,0.00
2013-3-5,43.4,34.7,28.3,32.0,27.4,24.0,95,75,58,30.04,29.71,0,0,0,0.00
2013-3-6,38.9,35.8,32.5,36.0,33.2,31.0,96,91,79,30.08,30.02,0,0,0,0.09
2013-3-7,33.6,31.8,30.3,32.0,29.9,28.0,96,93,86,30.06,29.97,0,0,0,0.08
2013-3-8,40.2,33.2,29.6,34.0,29.1,25.0,98,86,64,30.13,29.92,0,0,0,0.14
2013-3-9,49.6,35.6,23.5,31.0,24.4,21.0,96,67,35,30.32,30.12,0,0,0,0.17
2013-3-10,44.6,31.9,18.3,32.0,27.2,17.0,97,84,62,30.38,30.27,0,0,0,0.01
2013-3-11,51.4,40.7,31.2,40.0,34.8,30.0,96,81,53,30.29,30.10,0,0,0,0.00
2013-3-12,53.5,46.6,37.3,52.0,45.7,37.0,98,96,87,30.11,29.68,0,0,0,0.36
2013-3-13,50.0,41.9,30.0,50.0,31.6,21.0,99,70,36,29.74,29.66,0,0,0,0.01
2013-3-14,35.0,30.2,22.2,26.0,16.8,8.0,88,59,44,29.80,29.67,0,0,0,0.00
2013-3-15,39.2,26.7,18.7,29.0,11.5,5.0,86,54,30,29.83,29.60,0,0,0,0.00
2013-3-16,37.8,32.8,27.0,27.0,16.4,12.0,77,52,36,29.85,29.65,0,0,0,0.00
2013-3-17,36.7,28.8,19.6,20.0,12.4,6.0,91,54,30,30.29,29.85,0,0,0,0.00
2013-3-18,37.6,27.1,14.6,27.0,11.5,3.0,93,55,26,30.42,30.21,0,0,0,0.00
2013-3-19,34.0,31.6,26.6,33.0,30.6,25.0,100,95,93,30.20,29.60,0,0,0,0.09
2013-3-20,38.0,29.5,21.9,25.0,23.1,21.0,95,78,52,29.78,29.67,0,0,0,0.37
2013-3-21,36.5,27.5,16.8,28.0,20.9,13.0,95,79,39,29.78,29.57,0,0,0,0.17
2013-3-22,39.9,32.3,24.3,25.0,20.9,18.0,96,65,43,29.70,29.58,0,0,0,0.01
2013-3-23,43.1,34.2,22.1,24.0,20.2,18.0,90,59,37,29.75,29.60,0,0,0,0.00
2013-3-24,45.2,36.6,29.5,28.0,24.3,21.0,88,63,45,29.77,29.69,0,0,0,0.00
2013-3-25,42.2,35.1,27.0,33.0,29.8,25.0,94,81,69,29.74,29.50,0,0,0,0.00
2013-3-26,49.3,39.6,31.8,30.0,26.6,21.0,81,62,33,29.75,29.51,0,0,0,0.00
2013-3-27,54.2,40.5,25.0,33.0,26.6,23.0,94,62,34,29.84,29.70,0,0,0,0.00
2013-3-28,48.3,41.0,35.4,37.0,34.3,31.0,94,78,52,29.98,29.84,0,0,0,0.02
2013-3-29,55.5,43.0,28.9,36.0,32.7,28.0,97,70,38,30.02,29.93,0,0,0,0.00
2013-3-30,56.2,43.5,29.8,35.0,25.9,15.0,95,56,21,30.06,29.96,0,0,0,0.00
2013-3-31,59.5,43.2,25.1,41.0,28.5,23.0,92,62,25,30.09,29.70,0,0,0,0.04
2013-4-1,60.7,46.0,34.4,44.0,36.3,14.0,97,72,40,29.75,29.46,0,0,0,0.23
2013-4-2,39.7,33.9,28.5,18.0,14.2,10.0,58,45,32,29.90,29.75,0,0,0,0.00
2013-4-3,45.6,36.2,29.3,18.0,14.3,10.0,58,42,24,30.13,29.89,0,0,0,0.00
2013-4-4,54.8,41.2,25.8,26.0,18.4,13.0,81,44,21,30.26,30.00,0,0,0,0.00
2013-4-5,61.3,45.6,34.9,31.0,27.4,22.0,79,53,25,30.00,29.59,0,0,0,0.00
2013-4-6,45.6,36.5,27.5,27.0,14.3,6.0,70,43,20,30.30,29.85,0,0,0,0.00
2013-4-7,56.5,42.6,23.6,40.0,28.4,17.0,85,60,30,30.29,29.96,0,0,0,0.00
2013-4-8,64.3,50.2,38.1,44.0,39.1,35.0,97,70,35,30.05,29.91,0,0,0,0.00
2013-4-9,70.0,54.6,44.4,52.0,45.1,40.0,96,73,45,30.04,29.83,0,0,0,0.02
2013-4-10,62.8,51.0,45.0,50.0,46.5,43.0,97,85,62,29.98,29.82,0,0,0,0.14
2013-4-11,51.8,46.2,38.8,48.0,39.5,28.0,98,80,50,30.11,29.79,0,0,0,0.18
2013-4-12,39.8,37.5,35.6,39.0,35.6,32.0,97,93,78,30.14,29.78,0,0,0,0.48
2013-4-13,52.5,42.7,35.2,43.0,38.0,34.0,97,85,56,29.91,29.74,0,0,0,0.09
2013-4-14,52.3,44.4,32.8,41.0,33.8,28.0,96,69,44,30.18,29.88,0,0,0,0.00
2013-4-15,58.0,44.5,28.4,39.0,34.2,27.0,96,70,39,30.35,30.19,0,0,0,0.00
2013-4-16,67.6,51.3,34.1,52.0,42.7,33.0,97,75,46,30.37,30.02,0,0,0,0.00
2013-4-17,65.5,57.0,42.6,54.0,38.8,30.0,92,54,30,30.29,30.02,0,0,0,0.00
2013-4-18,62.8,49.3,32.8,44.0,35.3,29.0,94,63,36,30.40,30.10,0,0,0,0.00
2013-4-19,75.7,63.0,51.5,63.0,57.6,45.0,98,83,61,30.11,29.59,0,0,0,0.00
2013-4-20,67.0,53.1,43.4,63.0,41.5,24.0,96,68,40,30.17,29.55,0,0,0,0.41
2013-4-21,52.3,41.6,31.7,30.0,24.3,19.0,90,53,29,30.64,30.19,0,0,0,0.00
2013-4-22,51.4,40.7,28.7,35.0,30.2,24.0,97,70,35,30.72,30.57,0,0,0,0.00
2013-4-23,41.5,39.6,36.4,41.0,37.3,32.0,97,92,80,30.57,30.11,0,0,0,0.02
2013-4-24,75.4,56.5,41.0,54.0,45.2,38.0,97,71,27,30.09,29.74,0,0,0,0.01
2013-4-25,63.3,53.8,38.3,52.0,37.9,25.0,95,59,28,30.24,29.78,0,0,0,0.03
2013-4-26,60.5,47.4,31.4,41.0,34.9,30.0,96,66,38,30.39,30.24,0,0,0,0.00
2013-4-27,64.8,50.1,33.8,42.0,37.0,33.0,98,65,33,30.39,30.25,0,0,0,0.00
2013-4-28,69.4,52.8,34.9,43.0,37.7,33.0,97,62,32,30.30,30.18,0,0,0,0.00
2013-4-29,69.8,56.0,41.9,50.0,39.4,30.0,92,58,31,30.24,30.14,0,0,0,0.00
2013-4-30,68.9,55.2,41.5,42.0,33.7,25.0,89,50,22,30.32,30.21,0,0,0,0.00
2013-5-1,70.5,52.5,33.1,43.0,36.0,32.0,96,60,27,30.43,30.33,0,0,0,0.00
2013-5-2,76.4,53.9,37.3,48.0,41.1,36.0,96,67,28,30.46,30.31,0,0,0,0.00
2013-5-3,60.4,49.3,38.4,47.0,41.7,37.0,95,77,57,30.49,30.34,0,0,0,0.00
2013-5-4,61.1,48.1,35.3,48.0,37.8,22.0,98,73,24,30.34,30.26,0,0,0,0.00
2013-5-5,62.0,46.3,30.8,44.0,38.0,30.0,98,76,47,30.30,30.21,0,0,0,0.00
2013-5-6,71.8,50.4,31.9,51.0,42.5,31.0,98,79,33,30.26,30.11,0,0,0,0.00
2013-5-7,77.7,61.0,40.0,61.0,51.5,40.0,98,75,44,30.14,30.04,0,0,0,0.00
2013-5-8,74.0,61.5,49.1,64.0,57.8,49.0,98,88,67,30.16,30.01,0,0,0,0.08
2013-5-9,68.4,59.5,55.9,64.0,58.3,55.0,99,96,80,30.01,29.84,0,0,0,0.72
2013-5-10,79.1,64.3,52.9,62.0,57.9,53.0,99,82,45,29.92,29.85,0,0,0,0.03
2013-5-11,70.2,63.4,57.8,63.0,59.5,55.0,97,87,77,29.87,29.67,0,0,0,0.09
2013-5-12,62.7,42.4,45.4,58.0,20.4,-99.9,85,58,55,29.76,29.56,0,-125,0,0.00
2013-5-13,56.8,46.3,34.7,40.0,33.9,29.0,97,66,39,30.00,29.77,0,0,0,0.00
2013-5-14,58.8,46.1,33.0,39.0,33.1,-99.9,96,66,38,30.02,29.94,0,-10,0,0.00
2013-5-15,65.6,49.0,31.5,53.0,40.9,31.0,97,78,33,30.02,29.64,0,0,0,0.02
2013-5-16,79.3,63.7,42.7,55.0,43.4,35.0,99,56,24,29.77,29.59,0,0,0,0.01
2013-5-17,67.9,57.4,44.1,49.0,43.5,40.0,94,62,37,30.18,29.78,0,0,0,0.00
2013-5-18,71.6,55.6,38.5,51.0,44.7,38.0,98,72,32,30.27,30.18,0,0,0,0.00
2013-5-19,71.5,55.4,44.2,57.0,51.0,43.0,98,87,51,30.31,30.18,0,0,0,0.05
2013-5-20,80.1,66.3,55.0,69.0,61.4,55.0,99,86,62,30.17,29.87,0,0,0,0.09
2013-5-21,78.9,59.6,50.9,71.0,56.1,-99.9,99,90,71,29.97,29.83,0,-10,0,0.01
2013-5-22,68.1,56.0,49.6,64.0,54.4,49.0,98,94,85,30.04,29.86,0,0,0,0.60
2013-5-23,74.3,63.3,53.3,71.0,61.6,53.0,99,94,85,29.89,29.76,0,0,0,0.16
2013-5-24,71.1,62.4,48.1,68.0,60.4,47.0,99,93,82,29.79,29.61,0,0,0,0.49
2013-5-25,50.6,46.7,40.7,50.0,45.8,39.0,98,97,94,29.79,29.68,0,0,0,0.39
2013-5-26,57.2,47.4,39.3,46.0,40.7,38.0,96,79,56,30.06,29.68,0,0,0,0.04
2013-5-27,70.4,54.3,36.9,48.0,41.7,36.0,98,69,33,30.14,30.04,0,0,0,0.00
2013-5-28,73.0,56.6,38.5,53.0,46.5,38.0,98,73,35,30.20,30.12,0,0,0,0.00
2013-5-29,68.8,61.4,53.7,66.0,60.2,52.0,98,95,88,30.15,29.94,0,0,0,0.55
2013-5-30,86.5,72.3,59.2,71.0,66.0,59.0,99,83,50,30.04,29.96,0,0,0,0.11
2013-5-31,91.6,76.1,59.5,73.0,66.7,59.0,99,76,42,30.05,29.88,0,0,0,0.00
2013-6-1,91.0,78.1,62.9,72.0,67.1,61.0,98,72,37,29.93,29.80,0,0,0,0.00
2013-6-2,89.0,76.8,67.2,74.0,68.5,65.0,95,77,47,29.83,29.66,0,0,0,0.00
2013-6-3,77.1,67.7,57.0,71.0,63.3,47.0,98,86,63,29.80,29.71,0,0,0,0.50
2013-6-4,70.1,58.9,44.9,52.0,47.7,43.0,95,69,47,30.06,29.79,0,0,0,0.00
2013-6-5,72.4,59.6,44.9,60.0,50.7,44.0,98,75,39,30.16,30.05,0,0,0,0.00
2013-6-6,72.6,61.5,49.6,60.0,54.5,48.0,97,79,55,30.15,30.06,0,0,0,0.01
2013-6-7,56.8,54.8,52.8,56.0,54.2,52.0,100,97,95,30.07,29.80,0,0,0,1.86
2013-6-8,77.4,62.2,52.5,68.0,58.3,52.0,99,88,66,29.96,29.60,0,0,0,0.98
2013-6-9,78.0,64.7,51.4,63.0,57.2,51.0,99,79,50,30.13,29.96,0,0,0,0.00
2013-6-10,68.0,60.2,51.4,62.0,57.3,51.0,100,91,73,30.17,29.99,0,0,0,0.39
2013-6-11,61.8,57.5,55.4,59.0,56.5,55.0,98,96,90,29.99,29.55,0,0,0,1.33
2013-6-12,69.5,62.1,55.4,60.0,56.7,54.0,100,84,65,29.77,29.52,0,0,0,0.09
2013-6-16,71.7,67.3,61.7,63.0,56.4,-99.9,95,79,67,29.73,29.66,0,-29,0,0.00
2013-6-17,83.2,66.4,54.3,68.0,61.1,54.0,98,85,50,29.86,29.74,0,0,0,0.54
2013-6-18,72.8,61.5,54.8,67.0,59.9,55.0,99,94,78,29.91,29.84,0,0,0,0.07
2013-6-19,73.6,62.9,51.2,59.0,55.7,50.0,99,80,47,30.11,29.87,0,0,0,0.11
2013-6-20,77.6,62.9,46.2,60.0,53.9,46.0,99,76,41,30.22,30.11,0,0,0,0.00
2013-6-21,83.3,68.3,54.6,67.0,60.0,54.0,97,78,41,30.20,30.14,0,0,0,0.00
2013-6-22,82.9,70.7,58.2,70.0,63.5,58.0,100,80,51,30.17,30.06,0,0,0,0.00
2013-6-23,88.0,75.5,62.5,76.0,67.9,60.0,92,78,60,30.11,29.93,0,0,0,0.00
2013-6-24,90.6,78.1,67.8,80.0,71.3,67.0,98,81,57,29.97,29.82,0,0,0,0.06
2013-6-25,88.7,77.0,66.4,75.0,70.5,66.0,99,82,56,29.88,29.67,0,0,0,0.00
2013-6-26,82.8,72.6,66.7,77.0,70.3,66.0,98,92,72,29.80,29.67,0,0,0,0.30
2013-6-27,72.8,65.7,61.1,70.0,64.9,61.0,100,97,87,29.83,29.72,0,0,0,0.10
2013-6-28,82.5,69.3,58.6,77.0,67.6,58.0,99,94,78,29.72,29.44,0,0,0,0.31
2013-6-29,82.7,73.6,69.1,74.0,68.5,-99.9,98,87,67,29.67,29.46,0,-10,0,0.00
2013-6-30,84.3,74.7,65.6,77.0,70.9,65.0,99,89,73,29.88,29.67,0,0,0,0.00
2013-7-1,80.9,73.3,69.9,77.0,72.0,69.0,99,96,83,30.03,29.88,0,0,0,1.67
2013-7-2,82.8,71.7,60.9,78.0,70.1,60.0,99,95,81,30.17,30.02,0,0,0,0.00
2013-7-3,85.9,73.6,60.4,78.0,70.2,60.0,99,89,71,30.16,30.08,0,0,0,0.00
2013-7-4,89.6,79.8,68.8,80.0,74.2,69.0,99,84,64,30.16,30.04,0,0,0,0.00
2013-7-5,90.7,81.3,72.3,82.0,75.3,71.0,98,83,60,30.11,29.98,0,0,0,0.00
2013-7-6,88.0,78.2,67.4,78.0,73.2,65.0,99,85,58,30.02,29.93,0,0,0,0.00
2013-7-7,88.5,75.1,63.5,80.0,72.1,63.0,99,91,70,29.98,29.85,0,0,0,0.02
2013-7-8,83.9,74.8,65.2,78.0,72.7,65.0,99,93,80,30.03,29.86,0,0,0,0.60
2013-7-9,72.4,67.7,64.1,70.0,66.7,64.0,99,96,92,30.06,30.01,0,0,0,0.00
2013-7-10,83.6,72.6,65.7,79.0,71.2,65.0,99,95,84,30.03,29.75,0,0,0,0.07
2013-7-11,80.4,73.9,68.1,77.0,72.6,67.0,99,95,84,29.88,29.73,0,0,0,0.04
2013-7-12,75.7,68.8,62.4,68.0,63.4,59.0,97,84,63,30.16,29.89,0,0,0,0.00
2013-7-13,78.0,69.3,61.8,74.0,67.1,61.0,98,92,86,30.27,30.16,0,0,0,0.01
2013-7-14,85.7,75.8,66.5,80.0,72.9,66.0,98,91,73,30.26,30.16,0,0,0,0.00
2013-7-15,87.5,76.5,67.1,81.0,73.5,67.0,98,90,68,30.16,30.04,0,0,0,0.00
2013-7-16,88.0,76.5,64.3,79.0,71.6,64.0,98,86,63,30.12,30.05,0,0,0,0.00
2013-7-17,89.5,78.1,66.2,81.0,73.3,66.0,98,86,58,30.13,29.94,0,0,0,0.00
2013-7-18,89.0,78.7,70.6,81.0,74.4,69.0,97,87,67,29.96,29.89,0,0,0,0.00
2013-7-19,93.0,81.8,69.2,82.0,75.0,68.0,98,82,58,29.90,29.66,0,0,0,0.00
2013-7-20,89.0,79.5,67.6,80.0,74.9,66.0,97,86,66,29.76,29.60,0,0,0,0.00
2013-7-21,80.1,71.0,62.5,73.0,67.0,62.0,98,87,68,29.95,29.77,0,0,0,0.00
2013-7-22,82.6,70.9,62.1,75.0,67.7,61.0,98,90,70,29.98,29.85,0,0,0,0.00
2013-7-23,78.8,71.1,68.1,76.0,69.8,67.0,97,95,91,29.84,29.50,0,0,0,1.50
2013-7-24,82.4,73.9,63.5,75.0,68.3,56.0,94,83,64,29.93,29.54,0,0,0,0.18
2013-7-25,62.4,59.2,56.8,59.0,55.2,51.0,94,87,75,30.08,29.93,0,0,0,0.02
2013-7-26,71.4,64.3,59.1,68.0,62.1,57.0,94,92,89,30.03,29.90,0,0,0,0.01
2013-7-27,82.5,69.0,57.3,73.0,64.0,55.0,93,85,55,30.01,29.94,0,0,0,0.02
2013-7-28,81.6,70.2,61.0,75.0,66.5,59.0,93,88,71,29.98,29.92,0,0,0,0.00
2013-7-29,83.4,71.6,65.2,77.0,67.8,63.0,92,88,71,30.00,29.91,0,0,0,0.01
2013-7-30,80.0,68.5,58.0,67.0,61.9,55.0,91,80,54,30.05,29.99,0,0,0,0.00
2013-7-31,80.4,67.7,56.1,70.0,61.4,54.0,91,81,51,30.10,30.00,0,0,0,0.00
2013-8-1,80.2,67.3,58.3,71.0,62.8,56.0,90,86,70,30.00,29.83,0,0,0,0.00
2013-8-2,80.9,69.4,62.7,71.0,63.5,59.0,89,82,54,29.83,29.75,0,0,0,0.01
2013-8-3,77.1,67.3,59.3,68.0,62.0,56.0,89,83,65,29.82,29.73,0,0,0,0.00
2013-8-4,78.2,64.6,54.1,66.0,58.0,51.0,92,80,58,29.86,29.73,0,0,0,0.00
2013-8-5,74.1,60.9,50.3,57.0,51.9,47.0,89,74,41,30.01,29.85,0,0,0,0.00
2013-8-6,77.6,61.3,46.3,67.0,53.9,44.0,90,78,52,30.11,30.01,0,0,0,0.00
2013-8-7,78.7,64.5,50.4,67.0,57.1,47.0,89,78,47,30.15,30.07,0,0,0,0.00
2013-8-8,79.3,70.4,62.5,73.0,65.7,58.0,87,85,79,30.08,29.96,0,0,0,0.00
2013-8-9,74.3,71.3,69.1,70.0,66.9,65.0,87,86,85,29.98,29.70,0,0,0,0.00
2013-8-10,82.3,70.5,57.9,67.0,62.4,54.0,86,76,54,29.96,29.74,0,0,0,0.00
2013-8-11,77.6,63.4,50.2,66.0,55.6,47.0,87,77,53,30.04,29.96,0,0,0,0.00
2013-8-12,79.7,66.4,55.2,69.0,58.4,51.0,86,76,51,29.99,29.88,0,0,0,0.00
2013-8-13,74.3,66.0,61.0,68.0,60.7,56.0,84,83,79,29.88,29.64,0,0,0,0.00
2013-8-14,73.1,63.7,54.4,61.0,55.2,50.0,84,75,56,29.92,29.62,0,0,0,0.00
2013-8-15,75.9,60.9,48.9,62.0,52.3,45.0,85,75,51,30.07,29.93,0,0,0,0.00
2013-8-16,77.2,62.0,49.1,65.0,54.3,45.0,85,77,46,30.16,30.07,0,0,0,0.00
2013-8-17,80.0,64.1,50.9,68.0,57.1,47.0,85,78,55,30.24,30.16,0,0,0,0.00
2013-8-18,76.3,64.9,53.6,68.0,58.8,49.0,84,81,70,30.23,30.04,0,0,0,0.00
2013-8-19,78.8,66.8,54.3,69.0,59.8,50.0,84,78,63,30.04,29.91,0,0,0,0.00
2013-8-20,83.0,69.6,58.2,73.0,61.5,53.0,83,76,49,30.05,29.94,0,0,0,0.00
2013-8-21,85.4,70.3,56.9,74.0,62.3,52.0,83,76,56,30.10,29.98,0,0,0,0.00
2013-8-22,85.2,72.6,61.3,74.0,65.1,56.0,82,78,62,29.99,29.78,0,0,0,0.00
2013-8-23,79.0,68.9,55.6,68.0,60.3,51.0,83,75,54,30.09,29.78,0,0,0,0.00
2013-8-24,76.7,61.6,49.0,62.0,52.3,45.0,85,73,45,30.29,30.10,0,0,0,0.00
2013-8-25,80.6,63.3,46.9,66.0,53.8,43.0,86,74,40,30.33,30.14,0,0,0,0.00
2013-8-26,78.2,68.2,60.7,69.0,61.8,55.0,83,80,70,30.14,29.82,0,0,0,0.00
2013-8-27,84.2,72.2,63.4,73.0,65.3,58.0,83,79,64,29.86,29.79,0,0,0,0.00
2013-8-28,84.4,69.2,58.7,74.0,62.5,54.0,83,79,62,29.94,29.81,0,0,0,0.00
2013-8-29,65.7,63.6,59.0,60.0,57.8,54.0,82,81,81,30.04,29.91,0,0,0,0.00
2013-8-30,81.8,67.7,56.4,73.0,61.2,51.0,83,80,70,29.99,29.77,0,0,0,0.00
2013-8-31,79.4,72.0,65.8,73.0,65.6,60.0,81,80,78,29.79,29.74,0,0,0,0.05
2013-9-1,81.3,73.0,68.6,75.0,67.1,63.0,83,81,80,29.84,29.75,0,0,0,0.01
2013-9-2,78.9,73.1,69.9,74.0,68.2,65.0,87,84,83,29.83,29.67,0,0,0,0.50
2013-9-3,80.0,70.9,60.0,74.0,67.0,57.0,90,87,78,29.77,29.65,0,0,0,0.00
2013-9-4,79.9,65.1,55.1,66.0,58.0,53.0,92,79,50,29.88,29.77,0,0,0,0.00
2013-9-5,70.2,59.8,45.8,62.0,53.8,44.0,93,82,52,30.12,29.82,0,0,0,0.03
2013-9-6,69.8,53.0,39.0,54.0,45.5,38.0,95,79,43,30.21,30.06,0,0,0,0.01
2013-9-7,77.8,60.0,45.4,64.0,53.4,44.0,93,81,45,30.05,29.81,0,0,0,0.01
2013-9-8,72.4,61.3,45.1,66.0,54.4,43.0,92,80,48,30.06,29.71,0,0,0,0.03
2013-9-9,68.9,53.4,38.2,57.0,46.8,36.0,93,80,46,30.20,30.06,0,0,0,0.00
2013-9-10,74.0,63.5,50.8,70.0,60.5,48.0,92,90,88,30.12,29.99,0,0,0,0.10
2013-9-11,92.9,77.4,65.3,81.0,71.5,63.0,91,83,55,30.02,29.89,0,0,0,0.00
2013-9-12,85.1,74.5,65.7,78.0,69.7,62.0,90,85,72,29.91,29.62,0,0,0,1.86
2013-9-13,77.8,66.6,57.3,72.0,63.2,54.0,92,89,76,29.72,29.52,0,0,0,0.08
2013-9-14,68.5,58.4,48.5,61.0,53.6,46.0,92,84,67,30.02,29.72,0,0,0,0.00
2013-9-15,70.0,55.4,44.2,59.0,49.7,42.0,92,82,51,30.13,30.02,0,0,0,0.00
2013-9-16,67.2,55.3,45.9,61.0,50.8,40.0,91,85,71,30.22,29.97,0,0,0,0.01
2013-9-17,63.2,48.3,35.8,52.0,41.7,34.0,92,80,50,30.40,30.22,0,0,0,0.00
2013-9-18,72.9,52.4,37.1,56.0,45.5,35.0,93,80,40,30.30,30.11,0,0,0,0.00
2013-9-19,77.2,57.0,42.0,65.0,51.4,40.0,92,83,54,30.11,29.99,0,0,0,0.00
2013-9-20,77.9,58.7,44.5,66.0,53.4,42.0,92,84,54,30.05,29.95,0,0,0,0.00
2013-9-21,74.4,61.8,47.7,68.0,57.9,45.0,91,87,75,29.99,29.68,0,0,0,0.01
2013-9-22,69.4,62.4,48.7,64.0,56.5,46.0,89,81,59,29.79,29.56,0,0,0,0.59
2013-9-23,62.4,50.3,41.1,51.0,43.9,38.0,92,79,59,29.97,29.80,0,0,0,0.00
2013-9-24,66.3,50.2,38.2,53.0,43.3,36.0,91,79,52,29.96,29.78,0,0,0,0.00
2013-9-25,68.8,51.9,40.4,59.0,47.4,38.0,91,85,62,29.95,29.84,0,0,0,0.00
2013-9-26,67.0,55.5,49.7,56.0,50.1,47.0,90,83,60,30.10,29.95,0,0,0,0.00
2013-9-27,65.2,56.0,46.8,58.0,51.8,44.0,89,86,76,30.23,30.10,0,0,0,0.00
2013-9-28,73.9,54.9,43.1,63.0,49.6,40.0,90,83,58,30.30,30.23,0,0,0,0.00
2013-9-29,67.8,52.3,41.6,58.0,47.2,39.0,90,84,53,30.23,30.09,0,0,0,0.01
2013-9-30,68.4,52.8,41.3,57.0,48.0,38.0,89,84,63,30.09,29.93,0,0,0,0.00
2013-10-1,75.2,55.8,41.2,62.0,49.5,39.0,90,81,50,29.93,29.81,0,0,0,0.00
2013-10-2,77.7,61.2,47.7,65.0,55.1,45.0,92,81,61,29.91,29.79,0,0,0,0.00
2013-10-3,74.0,58.0,46.6,60.0,51.5,43.0,88,80,49,30.05,29.91,0,0,0,0.01
2013-10-4,61.3,53.9,46.7,57.0,48.9,-99.9,88,85,84,30.06,30.00,0,-22,0,0.23
2013-10-5,67.3,60.1,54.6,61.0,55.3,51.0,86,84,77,30.09,30.02,0,0,0,0.01
2013-10-6,58.5,55.7,53.2,54.0,51.0,49.0,84,84,83,30.21,30.08,0,0,0,0.35
2013-10-7,76.2,63.2,56.0,70.0,56.7,-99.9,84,81,79,30.10,29.75,0,-10,0,0.16
2013-10-8,65.6,53.0,40.1,53.0,45.5,36.0,86,77,49,30.34,29.87,0,0,0,0.00
2013-10-9,63.1,46.6,35.9,52.0,40.8,32.0,92,81,63,30.44,30.34,0,0,0,0.00
2013-10-10,61.3,48.8,37.5,54.0,44.0,34.0,86,83,76,30.34,30.15,0,0,0,0.00
2013-10-11,70.9,53.8,42.9,59.0,45.7,38.0,84,76,37,30.15,30.06,0,0,0,0.00
2013-10-12,57.6,51.1,42.3,52.0,45.5,38.0,83,81,79,30.36,30.12,0,0,0,0.00
2013-10-13,60.7,48.8,36.3,53.0,42.8,31.0,82,80,74,30.41,30.34,0,0,0,0.01
2013-10-14,65.3,46.8,31.4,49.0,38.7,27.0,83,75,45,30.37,30.21,0,0,0,0.00
2013-10-15,65.8,54.1,46.0,57.0,47.3,40.0,81,78,71,30.23,30.14,0,0,0,0.00
2013-10-16,61.6,53.4,45.8,55.0,46.5,39.0,80,77,74,30.15,29.88,0,0,0,0.00
2013-10-17,73.1,57.2,45.6,61.0,48.5,39.0,79,73,58,29.88,29.68,0,0,0,0.00
2013-10-18,66.1,57.1,41.3,55.0,46.8,34.0,79,69,52,29.86,29.57,0,0,0,0.01
2013-10-19,66.7,50.7,35.9,49.0,40.6,29.0,79,70,44,29.93,29.71,0,0,0,0.00
2013-10-20,61.0,50.1,35.6,46.0,39.0,30.0,81,67,42,29.98,29.65,0,0,0,0.00
2013-10-21,65.8,46.5,31.6,46.0,36.5,25.0,80,70,44,30.08,29.96,0,0,0,0.00
2013-10-22,65.3,49.3,36.9,53.0,40.9,30.0,80,73,62,29.96,29.67,0,0,0,0.01
2013-10-23,50.8,41.8,31.9,41.0,33.7,26.0,81,74,56,29.76,29.55,0,0,0,0.00
2013-10-24,52.8,40.6,30.8,38.0,30.4,25.0,82,69,41,29.85,29.61,0,0,0,0.00
2013-10-25,48.6,37.0,27.4,37.0,28.2,23.0,82,72,48,30.12,29.85,0,0,0,0.00
2013-10-26,54.6,40.0,25.2,37.0,28.4,20.0,82,66,37,30.12,29.84,0,0,0,0.00
2013-10-27,53.1,45.2,34.0,41.0,34.5,29.0,82,67,46,30.02,29.77,0,0,0,0.03
2013-10-28,57.6,41.3,28.7,38.0,30.3,24.0,82,67,42,30.32,30.03,0,0,0,0.00
2013-10-29,49.4,33.2,23.5,32.0,23.9,19.0,83,71,36,30.42,30.32,0,0,0,0.00
2013-10-30,50.2,36.1,26.7,43.0,30.5,22.0,83,80,73,30.34,30.16,0,0,0,0.02
2013-10-31,59.3,44.6,28.6,51.0,37.2,23.0,85,76,68,30.21,29.77,0,0,0,0.20
2013-11-1,68.7,62.5,52.6,61.0,53.8,45.0,77,73,65,29.74,29.40,0,0,0,0.05
2013-11-2,66.3,52.1,41.0,49.0,42.1,34.0,78,70,45,29.70,29.55,0,0,0,0.00
2013-11-3,47.3,40.3,29.9,40.0,28.6,16.0,81,65,40,30.38,29.69,0,0,0,0.00
2013-11-4,44.0,30.4,22.0,22.0,19.4,17.0,84,66,36,30.68,30.39,0,0,0,0.00
2013-11-5,49.1,34.0,21.7,32.0,26.0,17.0,84,74,50,30.69,30.48,0,0,0,0.00
2013-11-6,60.1,47.9,34.6,46.0,39.6,29.0,81,74,57,30.48,30.00,0,0,0,0.00
2013-11-7,64.5,52.4,34.5,57.0,45.1,30.0,82,76,72,30.00,29.64,0,0,0,0.12
2013-11-8,47.0,37.4,27.8,35.0,28.0,23.0,83,70,53,30.05,29.77,0,0,0,0.00
2013-11-9,45.2,36.4,26.4,32.0,26.2,22.0,83,68,43,30.18,30.00,0,0,0,0.00
2013-11-10,53.2,42.8,35.5,45.0,35.1,31.0,82,74,60,29.99,29.70,0,0,0,0.06
2013-11-11,50.5,43.1,37.8,35.0,30.3,27.0,78,62,41,30.06,29.81,0,0,0,0.00
2013-11-12,48.3,34.6,26.1,38.0,25.4,17.0,82,70,58,30.15,29.84,0,0,0,0.11
2013-11-13,35.4,26.3,20.0,19.0,16.7,13.0,84,69,41,30.26,30.12,0,0,0,0.00
2013-11-14,49.8,34.9,25.3,29.0,23.3,19.0,84,65,37,30.12,30.00,0,0,0,0.00
2013-11-15,60.2,39.3,24.7,31.0,25.4,18.0,84,64,20,30.16,30.06,0,0,0,0.00
2013-11-16,60.2,40.8,29.2,37.0,30.0,25.0,84,70,30,30.28,30.14,0,0,0,0.00
2013-11-17,49.3,40.3,28.2,42.0,34.7,24.0,84,80,75,30.28,29.81,0,0,0,0.04
2013-11-18,63.4,53.7,43.5,53.0,43.8,33.0,81,70,49,29.80,29.49,0,0,0,0.28
2013-11-19,47.8,38.7,29.7,33.0,23.6,17.0,64,55,44,30.24,29.62,0,0,0,0.00
2013-11-20,40.5,29.9,19.5,20.0,17.1,14.0,84,61,36,30.60,30.24,0,0,0,0.00
2013-11-21,46.3,30.0,16.4,28.0,20.9,13.0,86,72,34,30.61,30.34,0,0,0,0.00
2013-11-22,45.1,40.3,31.0,38.0,34.1,26.0,83,78,76,30.34,29.78,0,0,0,0.19
2013-11-23,44.3,38.1,28.8,39.0,26.6,18.0,80,65,44,29.88,29.74,0,0,0,0.00
2013-11-24,28.5,23.4,19.5,17.0,4.2,-99.9,68,46,30,30.15,29.75,0,-10,0,0.00
2013-11-25,31.9,23.7,15.6,17.0,4.5,-7.0,73,45,21,30.33,30.16,0,0,0,0.00
2013-11-26,38.7,33.8,30.5,28.0,23.1,15.0,81,65,51,30.30,30.03,0,0,0,0.11
2013-11-27,60.8,48.8,34.2,50.0,40.4,28.0,80,73,66,30.01,29.18,0,0,0,1.38
2013-11-28,37.1,29.9,21.3,31.0,18.0,8.0,80,62,40,30.39,29.42,0,0,0,0.00
2013-11-29,32.0,24.2,16.2,18.0,11.3,-99.9,83,62,33,30.71,30.39,0,-10,0,0.00
2013-11-30,31.7,21.8,10.4,24.0,14.7,7.0,85,75,57,30.77,30.40,0,0,0,0.00
2013-12-1,35.5,32.5,28.6,28.0,26.5,24.0,82,78,75,30.39,29.98,0,0,0,0.18
2013-12-2,38.3,36.3,35.2,30.0,28.7,27.0,75,73,72,29.98,29.89,0,0,0,0.00
2013-12-3,46.7,35.7,26.4,38.0,28.1,20.0,79,74,65,29.91,29.81,0,0,0,0.00
2013-12-4,42.3,31.6,24.9,33.0,24.3,19.0,80,75,60,30.16,29.91,0,0,0,0.00
2013-12-5,42.8,35.8,26.7,33.0,28.0,20.0,78,73,68,30.18,29.88,0,0,0,0.01
2013-12-6,53.3,46.3,34.0,41.0,36.5,27.0,78,69,61,30.12,29.82,0,0,0,0.25
2013-12-7,38.3,32.0,23.3,31.0,24.4,18.0,81,73,62,30.41,30.05,0,0,0,0.13
2013-12-8,30.0,25.6,18.6,22.0,17.4,-99.9,82,74,61,30.56,30.42,0,-10,0,0.00
2013-12-9,34.8,30.3,24.7,27.0,22.9,19.0,81,74,69,30.46,29.85,0,0,0,0.16
2013-12-10,33.4,29.9,23.6,25.0,22.1,16.0,81,73,70,29.96,29.75,0,0,0,0.01
2013-12-11,31.3,23.7,17.4,21.0,16.7,13.0,82,75,56,30.17,29.97,0,0,0,0.01
2013-12-12,23.8,18.3,9.3,18.0,8.3,1.0,83,67,40,30.23,30.03,0,0,0,0.00
2013-12-13,27.8,19.3,12.9,19.0,11.7,3.0,84,73,59,30.36,29.96,0,0,0,0.00
2013-12-14,17.8,12.9,9.0,13.0,4.1,-3.0,84,68,55,30.58,30.14,0,0,0,0.00
2013-12-15,32.3,22.2,15.8,25.0,16.8,11.0,88,79,74,30.11,29.41,0,0,0,0.00
2013-12-16,26.9,20.6,12.2,18.0,12.0,5.0,83,70,48,30.17,29.70,0,0,0,0.00
2013-12-17,16.7,8.7,-5.8,12.0,4.1,-9.0,85,81,64,30.25,29.93,0,0,0,0.00
2013-12-18,33.6,22.8,14.2,22.0,16.5,10.0,84,77,60,30.04,29.85,0,0,0,0.01
2013-12-19,41.2,30.0,22.2,25.0,22.4,18.0,83,74,51,30.08,29.91,0,0,0,0.11
2013-12-20,52.6,36.5,25.9,36.0,29.1,21.0,82,75,53,30.08,29.86,0,0,0,0.56
2013-12-21,56.4,43.3,35.5,47.0,36.8,30.0,81,78,67,29.92,29.81,0,0,0,0.05
2013-12-22,45.6,36.6,32.8,37.0,29.5,26.0,78,75,73,29.99,29.77,0,0,0,0.02
2013-12-23,36.7,32.8,31.3,29.0,25.6,24.0,75,74,72,30.07,29.94,0,0,0,0.56
2013-12-24,36.2,31.3,25.6,29.0,21.5,14.0,82,67,55,30.16,30.02,0,0,0,0.56
2013-12-25,25.6,17.5,12.4,16.0,6.6,2.0,83,63,48,30.51,30.16,0,0,0,0.00
2013-12-26,29.3,21.0,12.6,24.0,16.3,8.0,92,82,77,30.46,30.06,0,0,0,0.00
2013-12-27,32.5,22.8,14.9,23.0,16.8,11.0,84,78,65,30.23,30.15,0,0,0,0.03
2013-12-28,45.2,28.7,14.6,29.0,21.4,11.0,84,75,52,30.18,29.95,0,0,0,0.04
2013-12-29,39.2,32.2,23.9,32.0,26.0,19.0,81,78,74,30.00,29.40,0,0,0,1.26
2013-12-30,41.4,31.5,17.4,35.0,21.1,10.0,81,66,47,30.14,29.49,0,0,0,1.26
2013-12-31,24.0,16.7,12.1,13.0,6.0,-1.0,83,64,51,30.14,29.99,0,0,0,0.00
2014-1-1,25.9,18.8,10.0,13.0,9.1,5.0,83,66,49,30.35,30.15,0,0,0,0.00
2014-1-2,18.6,10.4,0.7,14.0,6.7,-3.0,96,84,82,30.33,29.85,0,0,0,0.00